createdAt,value
2019-01-21T00:02:11.969Z,16.50
2019-01-21T00:07:13.644Z,13.07
2019-01-21T00:12:15.414Z,15.63
2019-01-21T00:17:22.318Z,16.23
2019-01-21T00:22:21.254Z,15.87
2019-01-21T00:27:23.067Z,15.93
2019-01-21T00:32:24.853Z,20.10
2019-01-21T00:37:27.020Z,16.93
2019-01-21T00:42:29.212Z,18.50
2019-01-21T00:47:31.414Z,16.80
2019-01-21T00:52:33.541Z,25.47
2019-01-21T00:57:36.836Z,11.40
2019-01-21T01:02:38.724Z,23.37
2019-01-21T01:07:40.812Z,10.10
2019-01-21T01:12:43.016Z,22.63
2019-01-21T01:17:44.801Z,17.43
2019-01-21T01:22:46.796Z,11.97
2019-01-21T01:27:48.729Z,14.90
2019-01-21T01:32:50.564Z,18.10
2019-01-21T01:37:52.698Z,18.40
2019-01-21T01:42:54.838Z,14.27
2019-01-21T01:48:00.185Z,17.20
2019-01-21T01:53:02.588Z,23.77
2019-01-21T01:58:04.408Z,13.57
2019-01-21T02:03:06.730Z,22.40
2019-01-21T02:08:08.447Z,23.27
2019-01-21T02:13:10.249Z,15.10
2019-01-21T02:18:11.948Z,21.63
2019-01-21T02:23:15.287Z,19.57
2019-01-21T02:28:23.949Z,20.30
2019-01-21T02:33:35.826Z,19.83
2019-01-21T02:38:50.501Z,20.13
2019-01-21T02:44:07.977Z,14.70
2019-01-21T02:49:36.508Z,16.77
2019-01-21T02:54:45.052Z,34.10
2019-01-21T03:00:02.745Z,18.67
2019-01-21T03:05:21.649Z,23.00
2019-01-21T03:10:39.412Z,12.03
2019-01-21T03:16:03.257Z,21.77
2019-01-21T03:21:14.891Z,26.03
2019-01-21T03:26:35.548Z,23.37
2019-01-21T03:31:47.511Z,23.93
2019-01-21T03:37:01.802Z,28.27
2019-01-21T03:42:07.427Z,17.50
2019-01-21T03:47:12.865Z,11.50
2019-01-21T03:52:24.500Z,18.47
2019-01-21T03:57:29.887Z,18.40
2019-01-21T04:02:38.488Z,22.97
2019-01-21T04:07:45.674Z,18.10
2019-01-21T04:12:51.368Z,23.97
2019-01-21T04:18:09.213Z,23.67
2019-01-21T04:23:30.510Z,17.50
2019-01-21T04:28:38.942Z,27.40
2019-01-21T04:33:57.317Z,18.10
2019-01-21T04:39:08.856Z,20.03
2019-01-21T04:44:20.279Z,20.57
2019-01-21T04:49:52.788Z,23.83
2019-01-21T04:55:29.457Z,26.10
2019-01-21T05:00:41.597Z,18.67
2019-01-21T05:05:55.975Z,18.87
2019-01-21T05:11:19.345Z,20.50
2019-01-21T05:16:33.953Z,18.50
2019-01-21T05:21:48.139Z,24.10
2019-01-21T05:27:22.557Z,26.00
2019-01-21T05:32:43.601Z,23.97
2019-01-21T05:37:58.172Z,26.43
2019-01-21T05:43:20.767Z,32.87
2019-01-21T05:48:35.269Z,25.07
2019-01-21T05:53:46.407Z,27.13
2019-01-21T05:59:10.020Z,40.90
2019-01-21T06:04:32.108Z,26.77
2019-01-21T06:09:49.686Z,40.67
2019-01-21T06:15:16.984Z,24.57
2019-01-21T06:20:25.412Z,23.60
2019-01-21T06:25:43.369Z,32.10
2019-01-21T06:30:48.734Z,19.10
2019-01-21T06:35:56.943Z,25.57
2019-01-21T06:41:20.660Z,42.57
2019-01-21T06:46:52.168Z,43.30
2019-01-21T06:52:10.160Z,34.10
2019-01-21T06:57:37.160Z,43.67
2019-01-21T07:02:57.945Z,61.03
2019-01-21T07:08:37.199Z,80.73
2019-01-21T07:13:52.314Z,75.70
2019-01-21T07:19:11.035Z,88.27
2019-01-21T07:24:20.522Z,96.83
2019-01-21T07:29:53.458Z,78.87
2019-01-21T07:35:16.975Z,79.40
2019-01-21T07:40:25.041Z,101.97
2019-01-21T07:45:33.520Z,72.30
2019-01-21T07:50:59.019Z,74.87
2019-01-21T07:56:16.675Z,77.43
2019-01-21T08:01:22.063Z,84.80
2019-01-21T08:06:30.560Z,69.67
2019-01-21T08:11:54.280Z,65.00
2019-01-21T08:17:11.948Z,63.33
2019-01-21T08:22:33.037Z,71.53
2019-01-21T08:27:47.350Z,43.27
2019-01-21T08:32:53.256Z,64.30
2019-01-21T08:38:17.162Z,56.10
2019-01-21T08:43:25.275Z,58.10
2019-01-21T08:48:36.486Z,61.87
2019-01-21T08:53:56.733Z,94.07
2019-01-21T08:59:04.769Z,78.40
2019-01-21T09:04:36.071Z,95.33
2019-01-21T09:09:41.846Z,86.57
2019-01-21T09:14:59.346Z,100.60
2019-01-21T09:20:34.647Z,79.93
2019-01-21T09:25:45.270Z,79.60
2019-01-21T09:30:50.998Z,53.17
2019-01-21T09:36:16.653Z,41.73
2019-01-21T09:41:22.013Z,44.67
2019-01-21T09:46:43.522Z,55.63
2019-01-21T09:51:48.709Z,50.57
2019-01-21T09:56:54.173Z,62.53
2019-01-21T10:01:56.427Z,49.00
2019-01-21T10:07:19.650Z,56.20
2019-01-21T10:12:25.102Z,63.07
2019-01-21T10:17:30.459Z,60.13
2019-01-21T10:22:50.466Z,38.03
2019-01-21T10:28:05.248Z,30.83
2019-01-21T10:33:13.680Z,49.17
2019-01-21T10:38:34.395Z,44.47
2019-01-21T10:43:39.757Z,48.70
2019-01-21T10:48:48.599Z,32.93
2019-01-21T10:54:00.275Z,41.83
2019-01-21T10:59:14.479Z,34.97
2019-01-21T11:04:38.063Z,50.10
2019-01-21T11:09:46.266Z,47.17
2019-01-21T11:14:51.650Z,43.37
2019-01-21T11:20:03.924Z,42.87
2019-01-21T11:25:31.150Z,40.53
2019-01-21T11:30:43.472Z,30.90
2019-01-21T11:36:00.715Z,26.07
2019-01-21T11:41:12.230Z,23.83
2019-01-21T11:46:25.752Z,22.07
2019-01-21T11:51:40.461Z,17.77
2019-01-21T11:57:02.204Z,15.20
2019-01-21T12:02:18.464Z,14.70
2019-01-21T12:07:40.903Z,10.80
2019-01-21T12:13:08.058Z,9.07
2019-01-21T12:18:16.901Z,8.97
2019-01-21T12:23:37.171Z,4.37
2019-01-21T12:28:46.088Z,4.60
2019-01-21T12:34:09.224Z,3.50
2019-01-21T12:39:29.395Z,2.97
2019-01-21T12:44:49.855Z,3.93
2019-01-21T12:50:27.989Z,3.63
2019-01-21T12:55:36.834Z,3.20
2019-01-21T13:00:51.092Z,4.43
2019-01-21T13:06:05.265Z,4.43
2019-01-21T13:11:22.437Z,4.03
2019-01-21T13:16:27.785Z,3.23
2019-01-21T13:21:58.786Z,3.60
2019-01-21T13:27:07.256Z,3.73
2019-01-21T13:32:22.057Z,3.10
2019-01-21T13:37:33.951Z,4.10
2019-01-21T13:42:39.313Z,3.87
2019-01-21T13:47:47.845Z,2.90
2019-01-21T13:53:11.303Z,3.60
2019-01-21T13:58:16.671Z,2.80
2019-01-21T14:03:28.281Z,2.97
2019-01-21T14:08:34.422Z,3.60
2019-01-21T14:13:53.107Z,3.93
2019-01-21T14:19:10.008Z,3.43
2019-01-21T14:24:41.380Z,2.80
2019-01-21T14:29:49.730Z,2.90
2019-01-21T14:34:58.067Z,3.27
2019-01-21T14:40:09.616Z,3.90
2019-01-21T14:45:18.001Z,4.10
2019-01-21T14:50:43.624Z,4.03
2019-01-21T14:56:07.768Z,2.63
2019-01-21T15:01:16.203Z,4.17
2019-01-21T15:06:24.256Z,3.80
2019-01-21T15:11:44.826Z,5.47
2019-01-21T15:17:02.603Z,3.43
2019-01-21T15:22:14.263Z,5.03
2019-01-21T15:27:37.062Z,4.00
2019-01-21T15:32:54.908Z,4.50
2019-01-21T15:38:20.319Z,3.83
2019-01-21T15:43:41.527Z,2.90
2019-01-21T15:49:06.708Z,2.87
2019-01-21T15:54:30.432Z,3.40
2019-01-21T15:59:54.138Z,4.00
2019-01-21T16:05:05.128Z,3.60
2019-01-21T16:10:10.463Z,4.30
2019-01-21T16:15:34.195Z,3.40
2019-01-21T16:20:42.604Z,2.40
2019-01-21T16:25:47.956Z,3.30
2019-01-21T16:30:53.324Z,3.90
2019-01-21T16:35:58.735Z,4.90
2019-01-21T16:41:16.220Z,4.83
2019-01-21T16:46:20.033Z,3.70
2019-01-21T16:51:22.275Z,4.67
2019-01-21T16:56:28.592Z,4.30
2019-01-21T17:01:32.147Z,4.73
2019-01-21T17:06:34.037Z,5.70
2019-01-21T17:11:35.840Z,7.77
2019-01-21T17:16:37.598Z,4.80
2019-01-21T17:21:39.785Z,4.33
2019-01-21T17:26:41.651Z,3.90
2019-01-21T17:31:43.539Z,3.83
2019-01-21T17:36:45.405Z,5.50
2019-01-21T17:41:47.492Z,4.23
2019-01-21T17:46:49.366Z,5.60
2019-01-21T17:51:51.451Z,5.10
2019-01-21T17:56:53.277Z,5.03
2019-01-21T18:01:55.076Z,8.00
2019-01-21T18:06:57.772Z,8.70
2019-01-21T18:11:59.546Z,5.47
2019-01-21T18:17:01.703Z,6.00
2019-01-21T18:22:04.430Z,4.83
2019-01-21T18:27:06.215Z,5.43
2019-01-21T18:32:07.976Z,4.70
2019-01-21T18:37:09.823Z,5.90
2019-01-21T18:42:11.821Z,5.30
2019-01-21T18:47:13.648Z,5.97
2019-01-21T18:52:16.306Z,6.70
2019-01-21T18:57:18.176Z,5.50
2019-01-21T19:02:20.071Z,6.00
2019-01-21T19:07:24.304Z,5.07
2019-01-21T19:12:26.089Z,4.27
2019-01-21T19:17:28.313Z,5.27
2019-01-21T19:22:30.459Z,6.27
2019-01-21T19:27:32.316Z,5.60
2019-01-21T19:32:34.117Z,7.93
2019-01-21T19:37:35.999Z,6.80
2019-01-21T19:42:37.839Z,3.73
2019-01-21T19:47:39.841Z,13.90
2019-01-21T19:52:41.952Z,6.80
2019-01-21T19:57:43.857Z,4.67
2019-01-21T20:02:45.830Z,5.97
2019-01-21T20:07:47.730Z,6.40
2019-01-21T20:12:50.105Z,3.97
2019-01-21T20:17:52.384Z,4.80
2019-01-21T20:28:13.964Z,3.70
2019-01-21T20:33:15.650Z,3.37
2019-01-21T20:38:17.627Z,4.30
2019-01-21T20:43:19.301Z,4.60
2019-01-21T20:48:21.170Z,4.50
2019-01-21T20:53:22.862Z,4.90
2019-01-21T20:58:24.671Z,5.30
2019-01-21T21:03:26.407Z,5.30
2019-01-21T21:08:28.239Z,5.87
2019-01-21T21:13:30.044Z,5.10
2019-01-21T21:18:33.914Z,6.50
2019-01-21T21:23:35.810Z,5.60
2019-01-21T21:28:37.887Z,5.00
2019-01-21T21:33:39.673Z,4.23
2019-01-21T21:38:41.888Z,4.20
2019-01-21T21:43:43.669Z,4.50
2019-01-21T21:48:57.879Z,4.30
2019-01-21T21:53:59.753Z,3.87
2019-01-21T21:59:01.656Z,3.63
2019-01-21T22:04:03.986Z,3.20
2019-01-21T22:09:06.388Z,4.13
2019-01-21T22:14:08.283Z,3.03
2019-01-21T22:19:10.171Z,4.93
2019-01-21T22:24:12.067Z,4.20
2019-01-21T22:29:13.864Z,4.50
2019-01-21T22:34:16.056Z,3.70
2019-01-21T22:39:17.932Z,3.43
2019-01-21T22:44:19.593Z,4.87
2019-01-21T22:49:22.109Z,4.97
2019-01-21T22:54:24.386Z,2.97
2019-01-21T22:59:26.259Z,4.10
2019-01-21T23:04:28.244Z,3.40
2019-01-21T23:09:30.534Z,4.60
2019-01-21T23:14:32.440Z,3.50
2019-01-21T23:19:34.412Z,2.97
2019-01-21T23:24:36.291Z,4.73
2019-01-21T23:29:38.065Z,5.77
2019-01-21T23:34:44.148Z,7.13
2019-01-21T23:39:43.630Z,4.77
2019-01-21T23:44:45.710Z,6.60
2019-01-21T23:49:48.093Z,9.60
2019-01-21T23:54:50.182Z,8.67
2019-01-21T23:59:52.061Z,8.90
